createdAt,value
2018-02-19T00:00:36.471Z,-2.70
2018-02-19T00:03:04.030Z,-2.50
2018-02-19T00:05:31.576Z,-2.50
2018-02-19T00:07:59.100Z,-2.60
2018-02-19T00:10:26.624Z,-2.60
2018-02-19T00:12:54.185Z,-2.80
2018-02-19T00:15:21.757Z,-2.80
2018-02-19T00:17:49.382Z,-2.80
2018-02-19T00:20:17.188Z,-2.90
2018-02-19T00:22:45.529Z,-2.90
2018-02-19T00:25:13.200Z,-2.90
2018-02-19T00:27:41.370Z,-2.90
2018-02-19T00:30:09.676Z,-2.90
2018-02-19T00:32:37.253Z,-2.80
2018-02-19T00:35:04.800Z,-2.70
2018-02-19T00:37:32.326Z,-2.80
2018-02-19T00:39:59.884Z,-3.00
2018-02-19T00:42:27.692Z,-3.10
2018-02-19T00:44:55.249Z,-3.10
2018-02-19T00:47:24.291Z,-3.30
2018-02-19T00:49:51.877Z,-3.30
2018-02-19T00:52:19.668Z,-3.30
2018-02-19T00:54:47.380Z,-3.30
2018-02-19T00:57:15.155Z,-3.30
2018-02-19T00:59:42.832Z,-3.30
2018-02-19T01:02:10.796Z,-3.30
2018-02-19T01:04:38.560Z,-3.30
2018-02-19T01:07:06.125Z,-3.30
2018-02-19T01:09:33.672Z,-3.30
2018-02-19T01:12:01.242Z,-3.40
2018-02-19T01:14:28.774Z,-3.50
2018-02-19T01:16:57.088Z,-3.60
2018-02-19T01:19:24.648Z,-3.60
2018-02-19T01:21:52.176Z,-3.50
2018-02-19T01:24:19.702Z,-3.40
2018-02-19T01:26:47.428Z,-3.50
2018-02-19T01:29:15.042Z,-3.50
2018-02-19T01:31:43.873Z,-3.70
2018-02-19T01:34:12.365Z,-3.70
2018-02-19T01:36:40.383Z,-3.80
2018-02-19T01:39:07.982Z,-3.90
2018-02-19T01:41:35.871Z,-3.90
2018-02-19T01:44:03.613Z,-3.90
2018-02-19T01:46:31.360Z,-3.90
2018-02-19T01:48:58.930Z,-3.90
2018-02-19T01:51:26.484Z,-3.90
2018-02-19T01:53:54.063Z,-4.00
2018-02-19T01:56:21.644Z,-4.00
2018-02-19T01:58:49.584Z,-3.90
2018-02-19T02:01:17.658Z,-4.00
2018-02-19T02:03:45.836Z,-4.00
2018-02-19T02:06:14.457Z,-4.10
2018-02-19T02:08:42.975Z,-4.30
2018-02-19T02:11:11.795Z,-4.30
2018-02-19T02:13:40.728Z,-4.50
2018-02-19T02:16:09.783Z,-4.60
2018-02-19T02:18:37.352Z,-4.60
2018-02-19T02:21:06.705Z,-4.50
2018-02-19T02:23:35.188Z,-4.50
2018-02-19T02:26:03.914Z,-4.60
2018-02-19T02:28:32.704Z,-4.70
2018-02-19T02:31:00.288Z,-4.60
2018-02-19T02:33:27.829Z,-4.30
2018-02-19T02:35:55.413Z,-4.50
2018-02-19T02:38:22.959Z,-4.40
2018-02-19T02:40:50.493Z,-4.40
2018-02-19T02:43:18.578Z,-4.50
2018-02-19T02:45:46.979Z,-4.60
2018-02-19T02:48:15.336Z,-4.60
2018-02-19T02:50:43.379Z,-4.50
2018-02-19T02:53:11.959Z,-4.60
2018-02-19T02:55:40.371Z,-4.60
2018-02-19T02:58:08.091Z,-4.60
2018-02-19T03:00:36.787Z,-4.40
2018-02-19T03:03:05.422Z,-4.30
2018-02-19T03:05:33.271Z,-4.30
2018-02-19T03:08:00.878Z,-4.40
2018-02-19T03:10:28.416Z,-4.50
2018-02-19T03:12:55.970Z,-4.50
2018-02-19T03:15:23.763Z,-4.40
2018-02-19T03:17:51.309Z,-4.40
2018-02-19T03:20:18.965Z,-4.30
2018-02-19T03:22:46.699Z,-4.10
2018-02-19T03:25:15.847Z,-3.90
2018-02-19T03:27:47.140Z,-3.80
2018-02-19T03:30:15.006Z,-3.80
2018-02-19T03:32:43.905Z,-3.80
2018-02-19T03:35:11.539Z,-3.70
2018-02-19T03:37:41.725Z,-3.50
2018-02-19T03:40:10.082Z,-3.40
2018-02-19T03:42:37.648Z,-3.30
2018-02-19T03:45:06.783Z,-3.30
2018-02-19T03:47:35.485Z,-3.20
2018-02-19T03:50:04.412Z,-3.20
2018-02-19T03:52:32.385Z,-3.30
2018-02-19T03:55:00.762Z,-3.20
2018-02-19T03:57:28.683Z,-3.20
2018-02-19T03:59:57.015Z,-3.20
2018-02-19T04:02:24.558Z,-3.20
2018-02-19T04:04:52.258Z,-3.20
2018-02-19T04:07:19.978Z,-3.00
2018-02-19T04:09:47.966Z,-2.90
2018-02-19T04:12:16.242Z,-2.90
2018-02-19T04:14:45.153Z,-2.70
2018-02-19T04:17:13.031Z,-2.70
2018-02-19T04:19:42.219Z,-2.70
2018-02-19T04:22:12.019Z,-2.80
2018-02-19T04:24:40.503Z,-2.80
2018-02-19T04:27:09.008Z,-2.80
2018-02-19T04:29:36.712Z,-2.90
2018-02-19T04:32:05.263Z,-2.70
2018-02-19T04:34:34.152Z,-2.70
2018-02-19T04:37:03.004Z,-2.70
2018-02-19T04:39:30.536Z,-2.70
2018-02-19T04:41:58.985Z,-2.80
2018-02-19T04:44:30.465Z,-2.80
2018-02-19T04:46:58.777Z,-2.80
2018-02-19T04:49:26.318Z,-2.80
2018-02-19T04:51:53.899Z,-2.70
2018-02-19T04:54:21.418Z,-2.60
2018-02-19T04:56:49.752Z,-2.50
2018-02-19T04:59:17.715Z,-2.60
2018-02-19T05:01:46.393Z,-2.50
2018-02-19T05:04:14.913Z,-2.50
2018-02-19T05:06:43.355Z,-2.50
2018-02-19T05:09:12.042Z,-2.60
2018-02-19T05:11:41.040Z,-2.60
2018-02-19T05:14:09.518Z,-2.50
2018-02-19T05:16:37.385Z,-2.60
2018-02-19T05:19:06.793Z,-2.50
2018-02-19T05:21:34.554Z,-2.60
2018-02-19T05:24:03.239Z,-2.30
2018-02-19T05:26:30.789Z,-2.30
2018-02-19T05:28:58.345Z,-2.40
2018-02-19T05:31:25.873Z,-2.40
2018-02-19T05:33:54.194Z,-2.40
2018-02-19T05:36:21.718Z,-2.40
2018-02-19T05:38:50.330Z,-2.40
2018-02-19T05:41:18.962Z,-2.40
2018-02-19T05:43:47.099Z,-2.40
2018-02-19T05:46:15.696Z,-2.00
2018-02-19T05:48:44.399Z,-2.00
2018-02-19T05:51:12.778Z,-2.10
2018-02-19T05:53:41.780Z,-2.10
2018-02-19T05:56:09.444Z,-2.10
2018-02-19T05:58:38.426Z,-2.10
2018-02-19T06:01:07.085Z,-2.10
2018-02-19T06:03:35.181Z,-2.10
2018-02-19T06:06:02.875Z,-2.10
2018-02-19T06:08:30.413Z,-2.00
2018-02-19T06:10:58.749Z,-2.00
2018-02-19T06:13:26.333Z,-2.00
2018-02-19T06:15:53.882Z,-2.10
2018-02-19T06:18:21.409Z,-2.10
2018-02-19T06:20:50.008Z,-2.10
2018-02-19T06:23:17.600Z,-2.10
2018-02-19T06:25:45.762Z,-2.10
2018-02-19T06:28:14.058Z,-2.10
2018-02-19T06:30:42.253Z,-2.00
2018-02-19T06:33:11.368Z,-2.10
2018-02-19T06:35:40.105Z,-2.00
2018-02-19T06:38:10.333Z,-1.90
2018-02-19T06:40:38.350Z,-1.90
2018-02-19T06:43:06.346Z,-1.90
2018-02-19T06:45:34.228Z,-1.90
2018-02-19T06:48:03.118Z,-1.90
2018-02-19T06:50:30.685Z,-1.90
2018-02-19T06:52:58.245Z,-1.90
2018-02-19T06:55:25.774Z,-1.90
2018-02-19T06:57:53.343Z,-1.90
2018-02-19T07:00:20.982Z,-1.90
2018-02-19T07:02:49.311Z,-1.80
2018-02-19T07:05:17.078Z,-1.80
2018-02-19T07:07:44.930Z,-1.70
2018-02-19T07:10:12.694Z,-1.70
2018-02-19T07:12:41.102Z,-1.60
2018-02-19T07:15:09.042Z,-1.60
2018-02-19T07:17:37.407Z,-1.40
2018-02-19T07:20:05.045Z,-1.40
2018-02-19T07:22:33.393Z,-1.20
2018-02-19T07:25:01.125Z,-1.20
2018-02-19T07:27:28.665Z,-1.10
2018-02-19T07:29:56.208Z,-1.10
2018-02-19T07:32:24.510Z,-1.00
2018-02-19T07:34:52.070Z,-1.00
2018-02-19T07:37:19.950Z,-1.00
2018-02-19T07:39:47.820Z,-0.90
2018-02-19T07:42:15.582Z,-0.80
2018-02-19T07:44:43.573Z,-0.80
2018-02-19T07:47:13.264Z,-0.70
2018-02-19T07:49:41.249Z,-0.80
2018-02-19T07:52:09.817Z,-0.70
2018-02-19T07:54:37.407Z,-0.60
2018-02-19T07:57:05.736Z,-0.50
2018-02-19T07:59:33.541Z,-0.50
2018-02-19T08:02:01.148Z,-0.40
2018-02-19T08:04:28.734Z,-0.30
2018-02-19T08:06:56.446Z,-0.20
2018-02-19T08:09:23.979Z,-0.10
2018-02-19T08:11:51.526Z,-0.10
2018-02-19T08:14:19.078Z,-0.10
2018-02-19T08:16:47.015Z,0.10
2018-02-19T08:19:14.641Z,0.10
2018-02-19T08:21:43.375Z,0.30
2018-02-19T08:24:11.409Z,0.30
2018-02-19T08:26:40.177Z,0.50
2018-02-19T08:29:07.827Z,0.50
2018-02-19T08:31:35.487Z,0.50
2018-02-19T08:34:03.471Z,0.70
2018-02-19T08:36:31.224Z,0.80
2018-02-19T08:38:58.829Z,0.90
2018-02-19T08:41:26.395Z,1.00
2018-02-19T08:43:54.705Z,1.10
2018-02-19T08:46:22.297Z,1.10
2018-02-19T08:48:49.825Z,1.20
2018-02-19T08:51:17.402Z,1.30
2018-02-19T08:53:45.268Z,1.30
2018-02-19T08:56:13.362Z,1.40
2018-02-19T08:58:41.825Z,1.40
2018-02-19T09:01:10.819Z,1.70
2018-02-19T09:03:38.891Z,1.70
2018-02-19T09:06:07.248Z,2.00
2018-02-19T09:08:34.824Z,2.00
2018-02-19T09:11:02.697Z,2.00
2018-02-19T09:13:31.095Z,2.20
2018-02-19T09:15:58.661Z,2.10
2018-02-19T09:18:26.185Z,2.20
2018-02-19T09:20:53.733Z,2.30
2018-02-19T09:23:22.045Z,2.80
2018-02-19T09:25:49.693Z,2.80
2018-02-19T09:28:17.354Z,3.00
2018-02-19T09:30:45.066Z,3.00
2018-02-19T09:33:13.742Z,3.10
2018-02-19T09:35:41.603Z,3.10
2018-02-19T09:38:10.208Z,3.20
2018-02-19T09:40:37.927Z,3.20
2018-02-19T09:43:05.554Z,3.00
2018-02-19T09:45:34.382Z,2.90
2018-02-19T09:48:02.042Z,2.90
2018-02-19T09:50:29.601Z,3.10
2018-02-19T09:52:57.133Z,3.20
2018-02-19T09:55:25.450Z,3.10
2018-02-19T09:57:52.974Z,3.10
2018-02-19T10:00:21.456Z,3.30
2018-02-19T10:02:49.154Z,3.20
2018-02-19T10:05:17.008Z,3.30
2018-02-19T10:07:45.489Z,3.40
2018-02-19T10:10:13.508Z,3.30
2018-02-19T10:12:42.453Z,3.60
2018-02-19T10:15:10.422Z,3.60
2018-02-19T10:17:39.825Z,3.90
2018-02-19T10:20:07.375Z,3.90
2018-02-19T10:22:34.949Z,3.80
2018-02-19T10:25:02.712Z,3.80
2018-02-19T10:27:30.297Z,3.80
2018-02-19T10:29:58.725Z,4.10
2018-02-19T10:32:27.028Z,4.20
2018-02-19T10:34:54.560Z,4.20
2018-02-19T10:37:22.941Z,4.20
2018-02-19T10:39:50.733Z,4.20
2018-02-19T10:42:19.232Z,4.50
2018-02-19T10:44:47.224Z,4.50
2018-02-19T10:47:15.081Z,4.60
2018-02-19T10:49:43.356Z,4.60
2018-02-19T10:52:11.255Z,4.80
2018-02-19T10:54:40.292Z,4.90
2018-02-19T10:57:09.288Z,4.80
2018-02-19T10:59:36.864Z,4.80
2018-02-19T11:02:04.666Z,4.90
2018-02-19T11:04:32.359Z,4.90
2018-02-19T11:06:59.905Z,5.00
2018-02-19T11:09:28.241Z,4.90
2018-02-19T11:11:55.784Z,4.90
2018-02-19T11:14:23.415Z,4.60
2018-02-19T11:16:50.950Z,4.70
2018-02-19T11:19:19.249Z,4.80
2018-02-19T11:21:47.753Z,4.80
2018-02-19T11:24:15.687Z,4.80
2018-02-19T11:26:44.924Z,4.70
2018-02-19T11:29:12.895Z,4.70
2018-02-19T11:31:41.991Z,4.70
2018-02-19T11:34:09.834Z,4.70
2018-02-19T11:36:37.382Z,4.70
2018-02-19T11:39:05.677Z,4.40
2018-02-19T11:41:33.209Z,4.40
2018-02-19T11:44:01.550Z,4.60
2018-02-19T11:46:29.723Z,4.60
2018-02-19T11:48:58.231Z,4.60
2018-02-19T11:51:26.058Z,4.60
2018-02-19T11:53:54.843Z,4.50
2018-02-19T11:56:23.118Z,4.50
2018-02-19T11:58:51.549Z,4.50
2018-02-19T12:01:19.249Z,4.50
2018-02-19T12:03:46.803Z,4.50
2018-02-19T12:06:14.490Z,4.50
2018-02-19T12:08:42.317Z,4.40
2018-02-19T12:11:09.934Z,4.50
2018-02-19T12:13:37.464Z,4.50
2018-02-19T12:16:05.151Z,4.50
2018-02-19T12:18:33.193Z,4.30
2018-02-19T12:21:01.280Z,4.40
2018-02-19T12:23:29.176Z,4.40
2018-02-19T12:25:59.780Z,4.40
2018-02-19T12:28:27.647Z,4.30
2018-02-19T12:30:56.105Z,4.60
2018-02-19T12:33:24.829Z,4.50
2018-02-19T12:35:52.726Z,4.50
2018-02-19T12:38:20.551Z,4.90
2018-02-19T12:40:48.094Z,4.90
2018-02-19T12:43:15.993Z,4.80
2018-02-19T12:45:43.523Z,5.00
2018-02-19T12:48:11.067Z,5.00
2018-02-19T12:50:39.379Z,5.40
2018-02-19T12:53:06.921Z,5.40
2018-02-19T12:55:34.451Z,5.60
2018-02-19T12:58:02.786Z,5.50
2018-02-19T13:00:30.337Z,5.50
2018-02-19T13:02:57.870Z,5.40
2018-02-19T13:05:25.444Z,5.20
2018-02-19T13:07:53.014Z,5.10
2018-02-19T13:10:20.602Z,5.30
2018-02-19T13:12:48.182Z,5.50
2018-02-19T13:15:15.821Z,5.10
2018-02-19T13:17:43.359Z,5.00
2018-02-19T13:20:10.906Z,5.20
2018-02-19T13:22:38.442Z,5.60
2018-02-19T13:25:06.742Z,5.80
2018-02-19T13:27:34.324Z,5.70
2018-02-19T13:30:01.847Z,5.60
2018-02-19T13:32:29.389Z,5.30
2018-02-19T13:34:57.723Z,5.50
2018-02-19T13:37:25.273Z,5.50
2018-02-19T13:39:52.931Z,5.60
2018-02-19T13:42:20.697Z,5.60
2018-02-19T13:44:48.236Z,5.80
2018-02-19T13:47:15.760Z,5.80
2018-02-19T13:49:43.319Z,6.30
2018-02-19T13:52:10.931Z,6.00
2018-02-19T13:54:38.722Z,5.80
2018-02-19T13:57:06.877Z,5.60
2018-02-19T13:59:34.498Z,5.90
2018-02-19T14:02:02.948Z,6.40
2018-02-19T14:04:30.543Z,6.40
2018-02-19T14:06:58.859Z,7.00
2018-02-19T14:09:26.564Z,6.90
2018-02-19T14:11:54.353Z,6.90
2018-02-19T14:14:22.770Z,6.50
2018-02-19T14:16:50.593Z,6.50
2018-02-19T14:19:18.181Z,6.60
2018-02-19T14:21:45.718Z,6.30
2018-02-19T14:24:13.305Z,6.40
2018-02-19T14:26:40.965Z,6.50
2018-02-19T14:29:08.564Z,6.60
2018-02-19T14:31:36.302Z,6.50
2018-02-19T14:34:04.298Z,6.50
2018-02-19T14:36:31.821Z,6.30
2018-02-19T14:38:59.386Z,6.20
2018-02-19T14:41:26.929Z,6.30
2018-02-19T14:43:54.453Z,6.50
2018-02-19T14:46:22.018Z,6.40
2018-02-19T14:48:49.737Z,6.40
2018-02-19T14:51:17.397Z,6.20
2018-02-19T14:53:45.654Z,6.40
2018-02-19T14:56:13.189Z,6.40
2018-02-19T14:58:40.728Z,6.70
2018-02-19T15:01:08.257Z,6.80
2018-02-19T15:03:35.815Z,6.90
2018-02-19T15:06:03.666Z,6.60
2018-02-19T15:08:31.341Z,6.20
2018-02-19T15:10:59.314Z,5.90
2018-02-19T15:13:27.282Z,5.80
2018-02-19T15:15:55.181Z,5.70
2018-02-19T15:18:23.614Z,5.70
2018-02-19T15:20:52.829Z,5.80
2018-02-19T15:23:21.236Z,5.80
2018-02-19T15:25:50.203Z,5.60
2018-02-19T15:28:18.273Z,5.60
2018-02-19T15:30:46.043Z,5.50
2018-02-19T15:33:14.027Z,5.10
2018-02-19T15:35:42.542Z,5.10
2018-02-19T15:38:10.909Z,5.10
2018-02-19T15:40:39.043Z,5.00
2018-02-19T15:43:07.557Z,4.90
2018-02-19T15:45:35.109Z,4.90
2018-02-19T15:48:02.761Z,4.90
2018-02-19T15:50:30.365Z,4.80
2018-02-19T15:52:57.947Z,4.60
2018-02-19T15:55:25.512Z,4.50
2018-02-19T15:57:53.038Z,4.40
2018-02-19T16:00:20.569Z,4.30
2018-02-19T16:02:49.848Z,4.00
2018-02-19T16:05:17.919Z,4.00
2018-02-19T16:07:45.834Z,4.00
2018-02-19T16:10:14.882Z,3.80
2018-02-19T16:12:42.784Z,3.80
2018-02-19T16:15:45.159Z,3.70
2018-02-19T16:18:14.559Z,3.60
2018-02-19T16:20:43.726Z,3.60
2018-02-19T16:23:12.492Z,3.60
2018-02-19T16:25:41.100Z,3.70
2018-02-19T16:28:10.198Z,3.70
2018-02-19T16:30:38.064Z,3.70
2018-02-19T16:33:06.490Z,3.70
2018-02-19T16:35:34.722Z,3.70
2018-02-19T16:38:02.293Z,3.70
2018-02-19T16:40:29.839Z,3.70
2018-02-19T16:42:57.376Z,3.70
2018-02-19T16:45:25.682Z,3.60
2018-02-19T16:47:53.223Z,3.60
2018-02-19T16:50:21.147Z,3.50
2018-02-19T16:52:49.281Z,3.40
2018-02-19T16:55:16.999Z,3.30
2018-02-19T16:57:45.833Z,3.20
2018-02-19T17:00:14.110Z,3.20
2018-02-19T17:02:42.013Z,3.20
2018-02-19T17:05:10.051Z,3.20
2018-02-19T17:07:38.363Z,3.20
2018-02-19T17:10:06.501Z,3.20
2018-02-19T17:12:34.280Z,3.20
2018-02-19T17:15:01.833Z,3.20
2018-02-19T17:17:29.358Z,3.10
2018-02-19T17:19:57.694Z,3.10
2018-02-19T17:22:25.238Z,3.10
2018-02-19T17:24:52.773Z,3.20
2018-02-19T17:27:20.353Z,3.20
2018-02-19T17:29:48.082Z,3.20
2018-02-19T17:32:16.596Z,3.20
2018-02-19T17:34:45.017Z,3.10
2018-02-19T17:37:13.571Z,3.10
2018-02-19T17:39:41.351Z,3.10
2018-02-19T17:42:09.189Z,3.10
2018-02-19T17:44:36.861Z,3.10
2018-02-19T17:47:04.406Z,3.10
2018-02-19T17:49:31.966Z,3.10
2018-02-19T17:51:59.515Z,3.00
2018-02-19T17:54:27.058Z,3.00
2018-02-19T17:56:55.394Z,3.00
2018-02-19T17:59:22.932Z,2.90
2018-02-19T18:01:50.461Z,3.00
2018-02-19T18:04:18.858Z,3.00
2018-02-19T18:06:46.565Z,2.90
2018-02-19T18:09:14.399Z,2.90
2018-02-19T18:11:42.869Z,2.90
2018-02-19T18:14:11.054Z,2.90
2018-02-19T18:16:38.859Z,2.90
2018-02-19T18:19:06.447Z,2.90
2018-02-19T18:21:34.958Z,2.90
2018-02-19T18:24:03.337Z,3.00
2018-02-19T18:26:30.874Z,3.00
2018-02-19T18:28:58.430Z,3.00
2018-02-19T18:31:26.719Z,2.90
2018-02-19T18:33:54.421Z,2.80
2018-02-19T18:36:22.045Z,2.80
2018-02-19T18:38:49.597Z,2.80
2018-02-19T18:41:17.154Z,2.80
2018-02-19T18:43:45.868Z,2.70
2018-02-19T18:46:13.737Z,2.70
2018-02-19T18:48:42.479Z,2.70
2018-02-19T18:51:10.390Z,2.60
2018-02-19T18:53:39.182Z,2.60
2018-02-19T18:56:08.525Z,2.50
2018-02-19T18:58:36.855Z,2.50
2018-02-19T19:01:04.444Z,2.50
2018-02-19T19:03:32.082Z,2.50
2018-02-19T19:05:59.654Z,2.50
2018-02-19T19:08:39.222Z,2.50
2018-02-19T19:11:07.012Z,2.50
2018-02-19T19:13:34.816Z,2.50
2018-02-19T19:16:03.093Z,2.40
2018-02-19T19:18:30.805Z,2.40
2018-02-19T19:20:58.343Z,2.40
2018-02-19T19:23:25.881Z,2.30
2018-02-19T19:25:53.410Z,2.30
2018-02-19T19:28:21.290Z,2.30
2018-02-19T19:30:49.990Z,2.20
2018-02-19T19:33:18.346Z,2.20
2018-02-19T19:35:46.134Z,2.20
2018-02-19T19:38:13.789Z,2.20
2018-02-19T19:40:41.640Z,2.20
2018-02-19T19:43:09.233Z,2.20
2018-02-19T19:45:36.821Z,2.10
2018-02-19T19:48:04.445Z,2.10
2018-02-19T19:50:31.966Z,2.10
2018-02-19T19:53:00.487Z,2.10
2018-02-19T19:55:28.057Z,2.10
2018-02-19T19:57:55.631Z,2.10
2018-02-19T20:00:23.162Z,2.20
2018-02-19T20:02:51.407Z,2.20
2018-02-19T20:05:19.979Z,2.20
2018-02-19T20:07:48.514Z,2.20
2018-02-19T20:10:16.534Z,2.10
2018-02-19T20:12:44.276Z,2.10
2018-02-19T20:15:12.083Z,2.10
2018-02-19T20:17:40.682Z,2.10
2018-02-19T20:20:08.364Z,2.00
2018-02-19T20:22:36.077Z,2.00
2018-02-19T20:25:03.629Z,2.00
2018-02-19T20:27:31.958Z,2.00
2018-02-19T20:29:59.522Z,2.00
2018-02-19T20:32:27.074Z,2.00
2018-02-19T20:37:29.008Z,2.00
2018-02-19T20:39:57.325Z,2.10
2018-02-19T20:42:24.916Z,2.00
2018-02-19T20:44:52.549Z,2.10
2018-02-19T20:47:20.145Z,2.00
2018-02-19T20:49:47.814Z,2.10
2018-02-19T20:52:15.604Z,2.10
2018-02-19T20:54:43.955Z,2.10
2018-02-19T20:57:11.500Z,2.10
2018-02-19T20:59:39.090Z,2.10
2018-02-19T21:02:06.669Z,2.00
2018-02-19T21:04:35.072Z,1.90
2018-02-19T21:07:02.656Z,1.90
2018-02-19T21:09:30.233Z,1.80
2018-02-19T21:11:57.794Z,1.80
2018-02-19T21:14:25.343Z,1.80
2018-02-19T21:16:52.869Z,1.70
2018-02-19T21:19:20.582Z,1.70
2018-02-19T21:21:48.316Z,1.70
2018-02-19T21:24:18.659Z,1.70
2018-02-19T21:26:46.639Z,1.70
2018-02-19T21:29:14.826Z,1.70
2018-02-19T21:31:46.297Z,1.70
2018-02-19T21:34:13.925Z,1.70
2018-02-19T21:36:41.876Z,1.70
2018-02-19T21:39:09.671Z,1.70
2018-02-19T21:41:38.321Z,1.70
2018-02-19T21:44:07.301Z,1.70
2018-02-19T21:46:35.081Z,1.70
2018-02-19T21:49:02.621Z,1.80
2018-02-19T21:51:30.310Z,1.80
2018-02-19T21:53:57.944Z,1.80
2018-02-19T21:56:25.496Z,1.80
2018-02-19T21:58:53.805Z,1.70
2018-02-19T22:01:21.332Z,1.70
2018-02-19T22:03:50.381Z,1.70
2018-02-19T22:06:18.266Z,1.70
2018-02-19T22:08:46.736Z,1.70
2018-02-19T22:11:14.690Z,1.70
2018-02-19T22:13:42.570Z,1.70
2018-02-19T22:16:10.951Z,1.70
2018-02-19T22:18:39.501Z,1.50
2018-02-19T22:21:08.033Z,1.50
2018-02-19T22:23:35.621Z,1.40
2018-02-19T22:26:04.290Z,1.30
2018-02-19T22:28:31.818Z,1.30
2018-02-19T22:30:59.356Z,1.30
2018-02-19T22:33:26.896Z,1.30
2018-02-19T22:35:54.445Z,1.30
2018-02-19T22:38:22.018Z,1.20
2018-02-19T22:40:49.574Z,1.20
2018-02-19T22:43:17.131Z,1.30
2018-02-19T22:45:44.705Z,1.40
2018-02-19T22:48:12.373Z,1.40
2018-02-19T22:50:40.267Z,1.30
2018-02-19T22:53:08.919Z,1.40
2018-02-19T22:55:36.470Z,1.40
2018-02-19T22:58:04.048Z,1.50
2018-02-19T23:00:31.578Z,1.40
2018-02-19T23:02:59.894Z,1.60
2018-02-19T23:05:27.444Z,1.50
2018-02-19T23:07:54.980Z,1.50
2018-02-19T23:10:22.521Z,1.50
2018-02-19T23:12:50.822Z,1.30
2018-02-19T23:15:18.472Z,1.30
2018-02-19T23:17:46.862Z,1.30
2018-02-19T23:20:14.473Z,1.20
2018-02-19T23:22:42.168Z,1.20
2018-02-19T23:25:10.509Z,1.10
2018-02-19T23:27:38.718Z,1.10
2018-02-19T23:30:07.202Z,1.10
2018-02-19T23:32:34.840Z,1.10
2018-02-19T23:35:02.814Z,1.10
2018-02-19T23:37:30.406Z,1.00
2018-02-19T23:39:58.720Z,0.90
2018-02-19T23:42:26.276Z,0.90
2018-02-19T23:44:53.825Z,0.90
2018-02-19T23:47:21.477Z,0.90
2018-02-19T23:49:49.073Z,0.90
2018-02-19T23:52:16.649Z,0.90
2018-02-19T23:54:44.234Z,0.80
2018-02-19T23:57:12.584Z,0.80
2018-02-19T23:59:40.338Z,0.80
